Neptune — WCT5064 — position and weather

sailwx.info

Track history (hours):
 
Tides and Currents Weather Stations Pressure Air Temp Water Temp Dewpoint Dewpoint Depression Visibility Wind Speed Wind Dir Waves Ship Positions

Neptune

Owner: Dann Ocean Towing, TAMPA, FL. More information available from US FCC via Universal Licensing System and Coast Guard Vessel Documentation Center.

Last reported at 2018-May-26 17:27 UTC. Time now 2018-May-26 23:26 UTC.
Position N 40°33' W 074°02'.

Length 27 m; draft 12 m.

Type: Tow > 200 m length. MMSI: 368542000.

Date/timePositionNaut miles runAvg speedWind from/ knotsBaromVisibWave heightAir tempDewpointWater temp
2018-May-26 17:27N 40°33' W 074°02'4 7.6
2018-May-26 16:59N 40°36' W 074°03'4 8.1
2018-May-26 16:30N 40°39' W 074°07'4 6.9
2018-May-26 15:58N 40°38' W 074°12'0 0.0
2018-May-26 15:28N 40°38' W 074°12'0 0.0
2018-May-26 15:01N 40°38' W 074°12'0 0.4
2018-May-26 14:27N 40°38' W 074°12'0 0.0
2018-May-26 14:01N 40°38' W 074°12'0 0.0
2018-May-26 13:30N 40°38' W 074°12'0 0.0
2018-May-26 13:00N 40°38' W 074°12'0 0.0
2018-May-26 12:31N 40°38' W 074°12'0 0.0
2018-May-26 12:00N 40°38' W 074°12'0 0.0
2018-May-26 11:30N 40°38' W 074°12'2 3.1
2018-May-26 10:59N 40°39' W 074°10'4 7.6
2018-May-26 10:30N 40°39' W 074°05'0 0.2
2018-May-26 10:00N 40°39' W 074°05'1 1.5
2018-May-26 09:31N 40°39' W 074°06'4 0.8
2018-May-26 04:13N 40°38' W 074°12'0 1.0
2018-May-26 04:00N 40°38' W 074°12'4 7.4
2018-May-26 03:29N 40°39' W 074°07'5 9.8
2018-May-26 03:00N 40°42' W 074°02'811.4
2018-May-26 02:20N 40°49' W 073°58'4 0.1
2018-May-24 01:38N 40°45' W 074°01'1 8.7
2018-May-24 01:29N 40°44' W 074°01'4 8.7
2018-May-24 01:00N 40°40' W 074°03'3 4.5
2018-May-24 00:18N 40°39' W 074°07'0 0.0
2018-May-23 23:34N 40°39' W 074°07'0 0.0
2018-May-23 23:25N 40°39' W 074°07'0 0.0
2018-May-23 22:51N 40°39' W 074°07'0 0.0
2018-May-23 22:15N 40°39' W 074°07'0 0.0
2018-May-23 21:44N 40°39' W 074°07'1 3.8
2018-May-23 21:30N 40°39' W 074°06'4 7.5
2018-May-23 21:01N 40°40' W 074°01'0 0.4
2018-May-23 20:30N 40°40' W 074°01'0 0.0
2018-May-23 20:00N 40°40' W 074°01'0 0.0
2018-May-23 19:30N 40°40' W 074°01'0 0.0
2018-May-23 19:00N 40°40' W 074°01'0 0.0
2018-May-23 18:30N 40°40' W 074°01'0 0.0
2018-May-23 18:00N 40°40' W 074°01'0 0.0
2018-May-23 17:30N 40°40' W 074°01'0 0.0
2018-May-23 17:00N 40°40' W 074°01'0 0.0
2018-May-23 16:30N 40°40' W 074°01'2 3.5
2018-May-23 16:00N 40°42' W 074°00'4 7.9
2018-May-23 15:30N 40°45' W 073°58'61 6.5
2018-May-23 06:14N 41°07' W 072°43'2 8.1
2018-May-23 06:00N 41°07' W 072°41'4 8.1
2018-May-23 05:31N 41°08' W 072°35'4 7.9
2018-May-23 05:00N 41°09' W 072°30'4 7.8
2018-May-23 04:30N 41°10' W 072°25'3 6.9
2018-May-23 04:00N 41°11' W 072°21'3 6.0
2018-May-23 03:30N 41°12' W 072°17'3 5.6
2018-May-23 03:00N 41°13' W 072°14'3 6.0
2018-May-23 02:30N 41°14' W 072°10'39 5.9
2018-May-22 19:55N 41°31' W 071°24'3 0.1
2018-May-21 17:02N 41°35' W 071°25'3 1.6
2018-May-21 15:29N 41°32' W 071°24'156 7.2
2018-May-20 17:53N 39°50' W 073°59'3 7.5
2018-May-20 17:30N 39°47' W 074°00'4 7.8
2018-May-20 17:01N 39°43' W 074°01'4 7.9
2018-May-20 16:30N 39°39' W 074°02'4 8.0
2018-May-20 16:00N 39°36' W 074°04'  
Track history (hours):
 
Tides and Currents Weather Stations Pressure Air Temp Water Temp Dewpoint Dewpoint Depression Visibility Wind Speed Wind Dir Waves Ship Positions

Neptune

Owner: Dann Ocean Towing, TAMPA, FL. More information available from US FCC via Universal Licensing System and Coast Guard Vessel Documentation Center.

Last reported at 2018-May-26 17:27 UTC. Time now 2018-May-26 23:26 UTC.
Position N 40°33' W 074°02'.

Length 27 m; draft 12 m.

Type: Tow > 200 m length. MMSI: 368542000.

Date/timePositionNaut miles runAvg speedWind from/ knotsBaromVisibWave heightAir tempDewpointWater temp
2018-May-26 17:27N 40°33' W 074°02'4 7.6
2018-May-26 16:59N 40°36' W 074°03'4 8.1
2018-May-26 16:30N 40°39' W 074°07'4 6.9
2018-May-26 15:58N 40°38' W 074°12'0 0.0
2018-May-26 15:28N 40°38' W 074°12'0 0.0
2018-May-26 15:01N 40°38' W 074°12'0 0.4
2018-May-26 14:27N 40°38' W 074°12'0 0.0
2018-May-26 14:01N 40°38' W 074°12'0 0.0
2018-May-26 13:30N 40°38' W 074°12'0 0.0
2018-May-26 13:00N 40°38' W 074°12'0 0.0
2018-May-26 12:31N 40°38' W 074°12'0 0.0
2018-May-26 12:00N 40°38' W 074°12'0 0.0
2018-May-26 11:30N 40°38' W 074°12'2 3.1
2018-May-26 10:59N 40°39' W 074°10'4 7.6
2018-May-26 10:30N 40°39' W 074°05'0 0.2
2018-May-26 10:00N 40°39' W 074°05'1 1.5
2018-May-26 09:31N 40°39' W 074°06'4 0.8
2018-May-26 04:13N 40°38' W 074°12'0 1.0
2018-May-26 04:00N 40°38' W 074°12'4 7.4
2018-May-26 03:29N 40°39' W 074°07'5 9.8
2018-May-26 03:00N 40°42' W 074°02'811.4
2018-May-26 02:20N 40°49' W 073°58'4 0.1
2018-May-24 01:38N 40°45' W 074°01'1 8.7
2018-May-24 01:29N 40°44' W 074°01'4 8.7
2018-May-24 01:00N 40°40' W 074°03'3 4.5
2018-May-24 00:18N 40°39' W 074°07'0 0.0
2018-May-23 23:34N 40°39' W 074°07'0 0.0
2018-May-23 23:25N 40°39' W 074°07'0 0.0
2018-May-23 22:51N 40°39' W 074°07'0 0.0
2018-May-23 22:15N 40°39' W 074°07'0 0.0
2018-May-23 21:44N 40°39' W 074°07'1 3.8
2018-May-23 21:30N 40°39' W 074°06'4 7.5
2018-May-23 21:01N 40°40' W 074°01'0 0.4
2018-May-23 20:30N 40°40' W 074°01'0 0.0
2018-May-23 20:00N 40°40' W 074°01'0 0.0
2018-May-23 19:30N 40°40' W 074°01'0 0.0
2018-May-23 19:00N 40°40' W 074°01'0 0.0
2018-May-23 18:30N 40°40' W 074°01'0 0.0
2018-May-23 18:00N 40°40' W 074°01'0 0.0
2018-May-23 17:30N 40°40' W 074°01'0 0.0
2018-May-23 17:00N 40°40' W 074°01'0 0.0
2018-May-23 16:30N 40°40' W 074°01'2 3.5
2018-May-23 16:00N 40°42' W 074°00'4 7.9
2018-May-23 15:30N 40°45' W 073°58'61 6.5
2018-May-23 06:14N 41°07' W 072°43'2 8.1
2018-May-23 06:00N 41°07' W 072°41'4 8.1
2018-May-23 05:31N 41°08' W 072°35'4 7.9
2018-May-23 05:00N 41°09' W 072°30'4 7.8
2018-May-23 04:30N 41°10' W 072°25'3 6.9
2018-May-23 04:00N 41°11' W 072°21'3 6.0
2018-May-23 03:30N 41°12' W 072°17'3 5.6
2018-May-23 03:00N 41°13' W 072°14'3 6.0
2018-May-23 02:30N 41°14' W 072°10'39 5.9
2018-May-22 19:55N 41°31' W 071°24'3 0.1
2018-May-21 17:02N 41°35' W 071°25'3 1.6
2018-May-21 15:29N 41°32' W 071°24'156 7.2
2018-May-20 17:53N 39°50' W 073°59'3 7.5
2018-May-20 17:30N 39°47' W 074°00'4 7.8
2018-May-20 17:01N 39°43' W 074°01'4 7.9
2018-May-20 16:30N 39°39' W 074°02'4 8.0
2018-May-20 16:00N 39°36' W 074°04'  

Dump ship's entire track history